sensor_id;sensor_type;location;lat;lon;timestamp;temperature;humidity
9311;DHT22;4694;52.464;13.480;2024-03-25T00:01:34;6.40;99.90
9311;DHT22;4694;52.464;13.480;2024-03-25T00:04:03;6.40;99.90
9311;DHT22;4694;52.464;13.480;2024-03-25T00:06:28;6.40;99.90
9311;DHT22;4694;52.464;13.480;2024-03-25T00:08:58;6.40;99.90
9311;DHT22;4694;52.464;13.480;2024-03-25T00:11:24;6.50;99.90
9311;DHT22;4694;52.464;13.480;2024-03-25T00:13:51;6.40;99.90
9311;DHT22;4694;52.464;13.480;2024-03-25T00:16:16;6.50;99.90
9311;DHT22;4694;52.464;13.480;2024-03-25T00:18:43;6.40;99.90
9311;DHT22;4694;52.464;13.480;2024-03-25T00:21:10;6.50;99.90
9311;DHT22;4694;52.464;13.480;2024-03-25T00:23:37;6.50;99.90
9311;DHT22;4694;52.464;13.480;2024-03-25T00:26:03;6.50;99.90
9311;DHT22;4694;52.464;13.480;2024-03-25T00:28:29;6.50;99.90
9311;DHT22;4694;52.464;13.480;2024-03-25T00:30:55;6.50;99.90
9311;DHT22;4694;52.464;13.480;2024-03-25T00:33:21;6.40;99.90
9311;DHT22;4694;52.464;13.480;2024-03-25T00:35:47;6.40;99.90
9311;DHT22;4694;52.464;13.480;2024-03-25T00:38:16;6.50;99.90
9311;DHT22;4694;52.464;13.480;2024-03-25T00:40:43;6.40;99.90
9311;DHT22;4694;52.464;13.480;2024-03-25T00:43:10;6.40;99.90
9311;DHT22;4694;52.464;13.480;2024-03-25T00:45:35;6.40;99.90
9311;DHT22;4694;52.464;13.480;2024-03-25T00:48:03;6.40;99.90
9311;DHT22;4694;52.464;13.480;2024-03-25T00:50:29;6.50;99.90
9311;DHT22;4694;52.464;13.480;2024-03-25T00:52:56;6.50;99.90
9311;DHT22;4694;52.464;13.480;2024-03-25T00:55:23;6.50;99.90
9311;DHT22;4694;52.464;13.480;2024-03-25T00:57:50;6.50;99.90
9311;DHT22;4694;52.464;13.480;2024-03-25T01:00:16;6.50;99.90
9311;DHT22;4694;52.464;13.480;2024-03-25T01:02:43;6.40;99.90
9311;DHT22;4694;52.464;13.480;2024-03-25T01:05:09;6.40;99.90
9311;DHT22;4694;52.464;13.480;2024-03-25T01:07:36;6.40;99.90
9311;DHT22;4694;52.464;13.480;2024-03-25T01:10:02;6.50;99.90
9311;DHT22;4694;52.464;13.480;2024-03-25T01:12:31;6.50;99.90
9311;DHT22;4694;52.464;13.480;2024-03-25T01:14:56;6.50;99.90
9311;DHT22;4694;52.464;13.480;2024-03-25T01:17:23;6.50;99.90
9311;DHT22;4694;52.464;13.480;2024-03-25T01:19:49;6.50;99.90
9311;DHT22;4694;52.464;13.480;2024-03-25T01:22:16;6.50;99.90
9311;DHT22;4694;52.464;13.480;2024-03-25T01:24:41;6.60;99.90
9311;DHT22;4694;52.464;13.480;2024-03-25T01:27:08;6.50;99.90
9311;DHT22;4694;52.464;13.480;2024-03-25T01:29:35;6.60;99.90
9311;DHT22;4694;52.464;13.480;2024-03-25T01:32:01;6.50;99.90
9311;DHT22;4694;52.464;13.480;2024-03-25T01:34:28;6.50;99.90
9311;DHT22;4694;52.464;13.480;2024-03-25T01:36:54;6.50;99.90
9311;DHT22;4694;52.464;13.480;2024-03-25T01:39:20;6.60;99.90
9311;DHT22;4694;52.464;13.480;2024-03-25T01:41:47;6.50;99.90
9311;DHT22;4694;52.464;13.480;2024-03-25T01:44:12;6.60;99.90
9311;DHT22;4694;52.464;13.480;2024-03-25T01:46:40;6.60;99.90
9311;DHT22;4694;52.464;13.480;2024-03-25T01:49:08;6.60;99.90
9311;DHT22;4694;52.464;13.480;2024-03-25T01:51:35;6.50;99.90
9311;DHT22;4694;52.464;13.480;2024-03-25T01:54:02;6.50;99.90
9311;DHT22;4694;52.464;13.480;2024-03-25T01:56:31;6.50;99.90
9311;DHT22;4694;52.464;13.480;2024-03-25T01:58:57;6.50;99.90
9311;DHT22;4694;52.464;13.480;2024-03-25T02:01:23;6.50;99.90
9311;DHT22;4694;52.464;13.480;2024-03-25T02:03:52;6.50;99.90
9311;DHT22;4694;52.464;13.480;2024-03-25T02:06:20;6.40;99.90
9311;DHT22;4694;52.464;13.480;2024-03-25T02:08:48;6.40;99.90
9311;DHT22;4694;52.464;13.480;2024-03-25T02:11:14;6.30;99.90
9311;DHT22;4694;52.464;13.480;2024-03-25T02:13:41;6.30;99.90
9311;DHT22;4694;52.464;13.480;2024-03-25T02:16:07;6.20;99.90
9311;DHT22;4694;52.464;13.480;2024-03-25T02:18:34;6.20;99.90
9311;DHT22;4694;52.464;13.480;2024-03-25T02:21:01;6.20;99.90
9311;DHT22;4694;52.464;13.480;2024-03-25T02:23:27;6.20;99.90
9311;DHT22;4694;52.464;13.480;2024-03-25T02:25:55;6.10;99.90
9311;DHT22;4694;52.464;13.480;2024-03-25T02:28:21;6.10;99.90
9311;DHT22;4694;52.464;13.480;2024-03-25T02:30:47;6.00;99.90
9311;DHT22;4694;52.464;13.480;2024-03-25T02:33:14;6.00;99.90
9311;DHT22;4694;52.464;13.480;2024-03-25T02:35:41;6.00;99.90
9311;DHT22;4694;52.464;13.480;2024-03-25T02:38:08;6.00;99.90
9311;DHT22;4694;52.464;13.480;2024-03-25T02:40:35;6.00;99.90
9311;DHT22;4694;52.464;13.480;2024-03-25T02:43:03;6.00;99.90
9311;DHT22;4694;52.464;13.480;2024-03-25T02:45:29;6.00;99.90
9311;DHT22;4694;52.464;13.480;2024-03-25T02:47:56;6.00;99.90
9311;DHT22;4694;52.464;13.480;2024-03-25T02:50:21;5.90;99.90
9311;DHT22;4694;52.464;13.480;2024-03-25T02:52:48;5.90;99.90
9311;DHT22;4694;52.464;13.480;2024-03-25T02:55:14;6.00;99.90
9311;DHT22;4694;52.464;13.480;2024-03-25T02:57:40;6.00;99.90
9311;DHT22;4694;52.464;13.480;2024-03-25T03:00:09;6.00;99.90
9311;DHT22;4694;52.464;13.480;2024-03-25T03:02:36;6.10;99.90
9311;DHT22;4694;52.464;13.480;2024-03-25T03:05:01;6.10;99.90
9311;DHT22;4694;52.464;13.480;2024-03-25T03:07:29;6.10;99.90
9311;DHT22;4694;52.464;13.480;2024-03-25T03:09:55;6.20;99.90
9311;DHT22;4694;52.464;13.480;2024-03-25T03:12:21;6.20;99.90
9311;DHT22;4694;52.464;13.480;2024-03-25T03:14:47;6.20;99.90
9311;DHT22;4694;52.464;13.480;2024-03-25T03:17:15;6.20;99.90
9311;DHT22;4694;52.464;13.480;2024-03-25T03:19:41;6.20;99.90
9311;DHT22;4694;52.464;13.480;2024-03-25T03:22:07;6.20;99.90
9311;DHT22;4694;52.464;13.480;2024-03-25T03:24:33;6.10;99.90
9311;DHT22;4694;52.464;13.480;2024-03-25T03:27:00;6.10;99.90
9311;DHT22;4694;52.464;13.480;2024-03-25T03:29:26;6.10;99.90
9311;DHT22;4694;52.464;13.480;2024-03-25T03:31:53;6.10;99.90
9311;DHT22;4694;52.464;13.480;2024-03-25T03:34:20;6.10;99.90
9311;DHT22;4694;52.464;13.480;2024-03-25T03:36:46;6.10;99.90
9311;DHT22;4694;52.464;13.480;2024-03-25T03:39:12;6.10;99.90
9311;DHT22;4694;52.464;13.480;2024-03-25T03:41:39;6.10;99.90
9311;DHT22;4694;52.464;13.480;2024-03-25T03:44:04;6.10;99.90
9311;DHT22;4694;52.464;13.480;2024-03-25T03:46:31;6.20;99.90
9311;DHT22;4694;52.464;13.480;2024-03-25T03:48:57;6.20;99.90
9311;DHT22;4694;52.464;13.480;2024-03-25T03:51:25;6.20;99.90
9311;DHT22;4694;52.464;13.480;2024-03-25T03:53:50;6.20;99.90
9311;DHT22;4694;52.464;13.480;2024-03-25T03:56:17;6.20;99.90
9311;DHT22;4694;52.464;13.480;2024-03-25T03:58:43;6.20;99.90
9311;DHT22;4694;52.464;13.480;2024-03-25T04:01:16;6.20;99.90
9311;DHT22;4694;52.464;13.480;2024-03-25T04:03:41;6.20;99.90
9311;DHT22;4694;52.464;13.480;2024-03-25T04:06:09;6.20;99.90
9311;DHT22;4694;52.464;13.480;2024-03-25T04:08:37;6.20;99.90
9311;DHT22;4694;52.464;13.480;2024-03-25T04:11:04;6.20;99.90
9311;DHT22;4694;52.464;13.480;2024-03-25T04:13:31;6.20;99.90
9311;DHT22;4694;52.464;13.480;2024-03-25T04:16:01;6.20;99.90
9311;DHT22;4694;52.464;13.480;2024-03-25T04:18:28;6.30;99.90
9311;DHT22;4694;52.464;13.480;2024-03-25T04:20:55;6.30;99.90
9311;DHT22;4694;52.464;13.480;2024-03-25T04:23:21;6.30;99.90
9311;DHT22;4694;52.464;13.480;2024-03-25T04:25:49;6.20;99.90
9311;DHT22;4694;52.464;13.480;2024-03-25T04:28:15;6.20;99.90
9311;DHT22;4694;52.464;13.480;2024-03-25T04:30:50;6.30;99.90
9311;DHT22;4694;52.464;13.480;2024-03-25T04:33:16;6.30;99.90
9311;DHT22;4694;52.464;13.480;2024-03-25T04:35:44;6.30;99.90
9311;DHT22;4694;52.464;13.480;2024-03-25T04:38:10;6.30;99.90
9311;DHT22;4694;52.464;13.480;2024-03-25T04:40:36;6.30;99.90
9311;DHT22;4694;52.464;13.480;2024-03-25T04:43:03;6.30;99.90
9311;DHT22;4694;52.464;13.480;2024-03-25T04:45:29;6.20;99.90
9311;DHT22;4694;52.464;13.480;2024-03-25T04:47:55;6.30;99.90
9311;DHT22;4694;52.464;13.480;2024-03-25T04:50:21;6.30;99.90
9311;DHT22;4694;52.464;13.480;2024-03-25T04:52:46;6.30;99.90
9311;DHT22;4694;52.464;13.480;2024-03-25T04:55:12;6.30;99.90
9311;DHT22;4694;52.464;13.480;2024-03-25T04:57:38;6.30;99.90
9311;DHT22;4694;52.464;13.480;2024-03-25T05:00:06;6.30;99.90
9311;DHT22;4694;52.464;13.480;2024-03-25T05:02:32;6.40;99.90
9311;DHT22;4694;52.464;13.480;2024-03-25T05:04:58;6.40;99.90
9311;DHT22;4694;52.464;13.480;2024-03-25T05:07:24;6.20;99.90
9311;DHT22;4694;52.464;13.480;2024-03-25T05:09:50;6.30;99.90
9311;DHT22;4694;52.464;13.480;2024-03-25T05:12:15;6.40;99.90
9311;DHT22;4694;52.464;13.480;2024-03-25T05:14:41;6.30;99.90
9311;DHT22;4694;52.464;13.480;2024-03-25T05:17:08;6.30;99.90
9311;DHT22;4694;52.464;13.480;2024-03-25T05:19:34;6.30;99.90
9311;DHT22;4694;52.464;13.480;2024-03-25T05:22:01;6.30;99.90
9311;DHT22;4694;52.464;13.480;2024-03-25T05:24:27;6.40;99.90
9311;DHT22;4694;52.464;13.480;2024-03-25T05:26:53;6.40;99.90
9311;DHT22;4694;52.464;13.480;2024-03-25T05:29:18;6.40;99.90
9311;DHT22;4694;52.464;13.480;2024-03-25T05:31:57;6.30;99.90
9311;DHT22;4694;52.464;13.480;2024-03-25T05:34:25;6.40;99.90
9311;DHT22;4694;52.464;13.480;2024-03-25T05:36:51;6.40;99.90
9311;DHT22;4694;52.464;13.480;2024-03-25T05:39:16;6.40;99.90
9311;DHT22;4694;52.464;13.480;2024-03-25T05:41:42;6.40;99.90
9311;DHT22;4694;52.464;13.480;2024-03-25T05:44:08;6.40;99.90
9311;DHT22;4694;52.464;13.480;2024-03-25T05:46:34;6.40;99.90
9311;DHT22;4694;52.464;13.480;2024-03-25T05:49:02;6.40;99.90
9311;DHT22;4694;52.464;13.480;2024-03-25T05:51:29;6.40;99.90
9311;DHT22;4694;52.464;13.480;2024-03-25T05:53:55;6.20;99.90
9311;DHT22;4694;52.464;13.480;2024-03-25T05:56:20;6.30;99.90
9311;DHT22;4694;52.464;13.480;2024-03-25T05:58:46;6.30;99.90
9311;DHT22;4694;52.464;13.480;2024-03-25T06:01:12;6.30;99.90
9311;DHT22;4694;52.464;13.480;2024-03-25T06:03:38;6.30;99.90
9311;DHT22;4694;52.464;13.480;2024-03-25T06:06:04;6.30;99.90
9311;DHT22;4694;52.464;13.480;2024-03-25T06:08:31;6.30;99.90
9311;DHT22;4694;52.464;13.480;2024-03-25T06:11:00;6.40;99.90
9311;DHT22;4694;52.464;13.480;2024-03-25T06:13:26;6.40;99.90
9311;DHT22;4694;52.464;13.480;2024-03-25T06:15:52;6.40;99.90
9311;DHT22;4694;52.464;13.480;2024-03-25T06:18:18;6.40;99.90
9311;DHT22;4694;52.464;13.480;2024-03-25T06:20:44;6.80;99.90
9311;DHT22;4694;52.464;13.480;2024-03-25T06:23:10;8.20;99.90
9311;DHT22;4694;52.464;13.480;2024-03-25T06:25:37;8.50;99.90
9311;DHT22;4694;52.464;13.480;2024-03-25T06:28:03;8.90;99.90
9311;DHT22;4694;52.464;13.480;2024-03-25T06:30:29;9.20;99.90
9311;DHT22;4694;52.464;13.480;2024-03-25T06:33:18;9.00;99.90
9311;DHT22;4694;52.464;13.480;2024-03-25T06:36:03;8.40;99.90
9311;DHT22;4694;52.464;13.480;2024-03-25T06:38:29;8.00;99.90
9311;DHT22;4694;52.464;13.480;2024-03-25T06:40:56;7.70;99.90
9311;DHT22;4694;52.464;13.480;2024-03-25T06:43:22;7.50;99.90
9311;DHT22;4694;52.464;13.480;2024-03-25T06:45:48;7.40;99.90
9311;DHT22;4694;52.464;13.480;2024-03-25T06:48:13;7.20;99.90
9311;DHT22;4694;52.464;13.480;2024-03-25T06:50:39;7.10;99.90
9311;DHT22;4694;52.464;13.480;2024-03-25T06:53:05;7.00;99.90
9311;DHT22;4694;52.464;13.480;2024-03-25T06:55:30;6.90;99.90
9311;DHT22;4694;52.464;13.480;2024-03-25T06:57:58;6.90;99.90
9311;DHT22;4694;52.464;13.480;2024-03-25T07:00:23;6.90;99.90
9311;DHT22;4694;52.464;13.480;2024-03-25T07:02:49;6.80;99.90
9311;DHT22;4694;52.464;13.480;2024-03-25T07:05:15;6.70;99.90
9311;DHT22;4694;52.464;13.480;2024-03-25T07:07:41;6.60;99.90
9311;DHT22;4694;52.464;13.480;2024-03-25T07:10:07;6.60;99.90
9311;DHT22;4694;52.464;13.480;2024-03-25T07:12:33;6.60;99.90
9311;DHT22;4694;52.464;13.480;2024-03-25T07:15:00;6.60;99.90
9311;DHT22;4694;52.464;13.480;2024-03-25T07:17:26;6.60;99.90
9311;DHT22;4694;52.464;13.480;2024-03-25T07:19:52;6.60;99.90
9311;DHT22;4694;52.464;13.480;2024-03-25T07:22:18;6.50;99.90
9311;DHT22;4694;52.464;13.480;2024-03-25T07:24:45;6.50;99.90
9311;DHT22;4694;52.464;13.480;2024-03-25T07:27:11;6.50;99.90
9311;DHT22;4694;52.464;13.480;2024-03-25T07:29:37;6.50;99.90
9311;DHT22;4694;52.464;13.480;2024-03-25T07:32:04;6.50;99.90
9311;DHT22;4694;52.464;13.480;2024-03-25T07:34:30;6.50;99.90
9311;DHT22;4694;52.464;13.480;2024-03-25T07:36:56;6.50;99.90
9311;DHT22;4694;52.464;13.480;2024-03-25T07:39:22;6.50;99.90
9311;DHT22;4694;52.464;13.480;2024-03-25T07:41:48;6.60;99.90
9311;DHT22;4694;52.464;13.480;2024-03-25T07:44:14;6.60;99.90
9311;DHT22;4694;52.464;13.480;2024-03-25T07:46:39;6.70;99.90
9311;DHT22;4694;52.464;13.480;2024-03-25T07:49:06;6.60;99.90
9311;DHT22;4694;52.464;13.480;2024-03-25T07:51:32;6.60;99.90
9311;DHT22;4694;52.464;13.480;2024-03-25T07:53:58;6.60;99.90
9311;DHT22;4694;52.464;13.480;2024-03-25T07:56:23;6.70;99.90
9311;DHT22;4694;52.464;13.480;2024-03-25T07:58:49;6.60;99.90
9311;DHT22;4694;52.464;13.480;2024-03-25T08:01:15;6.60;99.90
9311;DHT22;4694;52.464;13.480;2024-03-25T08:03:41;6.70;99.90
9311;DHT22;4694;52.464;13.480;2024-03-25T08:06:08;6.70;99.90
9311;DHT22;4694;52.464;13.480;2024-03-25T08:08:33;6.70;99.90
9311;DHT22;4694;52.464;13.480;2024-03-25T08:10:59;6.70;99.90
9311;DHT22;4694;52.464;13.480;2024-03-25T08:13:26;6.70;99.90
9311;DHT22;4694;52.464;13.480;2024-03-25T08:15:52;6.70;99.90
9311;DHT22;4694;52.464;13.480;2024-03-25T08:18:18;6.80;99.90
9311;DHT22;4694;52.464;13.480;2024-03-25T08:20:44;6.80;99.90
9311;DHT22;4694;52.464;13.480;2024-03-25T08:23:11;6.90;99.90
9311;DHT22;4694;52.464;13.480;2024-03-25T08:25:37;6.90;99.90
9311;DHT22;4694;52.464;13.480;2024-03-25T08:28:04;7.00;99.90
9311;DHT22;4694;52.464;13.480;2024-03-25T08:30:30;7.10;99.90
9311;DHT22;4694;52.464;13.480;2024-03-25T08:32:56;7.10;99.90
9311;DHT22;4694;52.464;13.480;2024-03-25T08:35:22;7.20;99.90
9311;DHT22;4694;52.464;13.480;2024-03-25T08:37:47;7.30;99.90
9311;DHT22;4694;52.464;13.480;2024-03-25T08:40:15;7.40;99.90
9311;DHT22;4694;52.464;13.480;2024-03-25T08:42:40;7.60;99.90
9311;DHT22;4694;52.464;13.480;2024-03-25T08:45:07;7.60;99.90
9311;DHT22;4694;52.464;13.480;2024-03-25T08:47:33;7.70;99.90
9311;DHT22;4694;52.464;13.480;2024-03-25T08:49:58;7.80;99.90
9311;DHT22;4694;52.464;13.480;2024-03-25T08:52:24;8.00;99.90
9311;DHT22;4694;52.464;13.480;2024-03-25T08:54:50;8.00;99.90
9311;DHT22;4694;52.464;13.480;2024-03-25T08:57:17;8.10;99.90
9311;DHT22;4694;52.464;13.480;2024-03-25T08:59:43;8.10;99.90
9311;DHT22;4694;52.464;13.480;2024-03-25T09:02:09;8.10;99.90
9311;DHT22;4694;52.464;13.480;2024-03-25T09:04:34;8.00;99.90
9311;DHT22;4694;52.464;13.480;2024-03-25T09:07:00;8.00;99.90
9311;DHT22;4694;52.464;13.480;2024-03-25T09:09:26;8.00;99.90
9311;DHT22;4694;52.464;13.480;2024-03-25T09:12:10;8.10;99.90
9311;DHT22;4694;52.464;13.480;2024-03-25T09:14:38;8.00;99.90
9311;DHT22;4694;52.464;13.480;2024-03-25T09:17:04;8.10;99.90
9311;DHT22;4694;52.464;13.480;2024-03-25T09:19:29;8.10;99.90
9311;DHT22;4694;52.464;13.480;2024-03-25T09:21:55;8.20;99.90
9311;DHT22;4694;52.464;13.480;2024-03-25T09:24:21;8.20;99.90
9311;DHT22;4694;52.464;13.480;2024-03-25T09:26:49;8.10;99.90
9311;DHT22;4694;52.464;13.480;2024-03-25T09:29:15;8.10;99.90
9311;DHT22;4694;52.464;13.480;2024-03-25T09:31:42;8.20;99.90
9311;DHT22;4694;52.464;13.480;2024-03-25T09:34:09;8.20;99.90
9311;DHT22;4694;52.464;13.480;2024-03-25T09:36:35;8.30;99.90
9311;DHT22;4694;52.464;13.480;2024-03-25T09:39:01;8.30;99.90
9311;DHT22;4694;52.464;13.480;2024-03-25T09:41:28;8.30;99.90
9311;DHT22;4694;52.464;13.480;2024-03-25T09:43:55;8.30;99.90
9311;DHT22;4694;52.464;13.480;2024-03-25T09:46:21;8.30;99.90
9311;DHT22;4694;52.464;13.480;2024-03-25T09:48:50;8.20;99.90
9311;DHT22;4694;52.464;13.480;2024-03-25T09:51:17;8.20;99.90
9311;DHT22;4694;52.464;13.480;2024-03-25T09:53:44;8.10;99.90
9311;DHT22;4694;52.464;13.480;2024-03-25T09:56:10;8.10;99.90
9311;DHT22;4694;52.464;13.480;2024-03-25T09:58:36;8.10;99.90
9311;DHT22;4694;52.464;13.480;2024-03-25T10:01:02;8.10;99.90
9311;DHT22;4694;52.464;13.480;2024-03-25T10:03:28;8.20;99.90
9311;DHT22;4694;52.464;13.480;2024-03-25T10:05:55;8.30;99.90
9311;DHT22;4694;52.464;13.480;2024-03-25T10:08:21;8.40;99.90
9311;DHT22;4694;52.464;13.480;2024-03-25T10:10:47;8.40;99.90
9311;DHT22;4694;52.464;13.480;2024-03-25T10:13:15;8.50;99.90
9311;DHT22;4694;52.464;13.480;2024-03-25T10:15:41;8.60;99.90
9311;DHT22;4694;52.464;13.480;2024-03-25T10:18:07;8.80;99.90
9311;DHT22;4694;52.464;13.480;2024-03-25T10:20:34;8.90;99.90
9311;DHT22;4694;52.464;13.480;2024-03-25T10:23:02;9.10;99.90
9311;DHT22;4694;52.464;13.480;2024-03-25T10:25:29;9.20;99.90
9311;DHT22;4694;52.464;13.480;2024-03-25T10:27:55;9.20;99.90
9311;DHT22;4694;52.464;13.480;2024-03-25T10:30:21;9.10;99.90
9311;DHT22;4694;52.464;13.480;2024-03-25T10:32:57;9.10;99.90
9311;DHT22;4694;52.464;13.480;2024-03-25T10:35:26;9.10;99.90
9311;DHT22;4694;52.464;13.480;2024-03-25T10:37:53;9.10;99.90
9311;DHT22;4694;52.464;13.480;2024-03-25T10:40:22;9.00;99.90
9311;DHT22;4694;52.464;13.480;2024-03-25T10:42:50;9.00;99.90
9311;DHT22;4694;52.464;13.480;2024-03-25T10:45:17;8.90;99.90
9311;DHT22;4694;52.464;13.480;2024-03-25T10:47:42;9.00;99.90
9311;DHT22;4694;52.464;13.480;2024-03-25T10:50:12;9.00;99.90
9311;DHT22;4694;52.464;13.480;2024-03-25T10:52:42;9.00;99.90
9311;DHT22;4694;52.464;13.480;2024-03-25T10:55:08;9.00;99.90
9311;DHT22;4694;52.464;13.480;2024-03-25T10:57:35;9.10;99.90
9311;DHT22;4694;52.464;13.480;2024-03-25T11:00:02;9.20;99.90
9311;DHT22;4694;52.464;13.480;2024-03-25T11:02:30;9.20;99.90
9311;DHT22;4694;52.464;13.480;2024-03-25T11:04:56;9.40;99.90
9311;DHT22;4694;52.464;13.480;2024-03-25T11:07:30;9.70;99.90
9311;DHT22;4694;52.464;13.480;2024-03-25T11:10:04;9.80;99.90
9311;DHT22;4694;52.464;13.480;2024-03-25T11:12:38;9.80;99.90
9311;DHT22;4694;52.464;13.480;2024-03-25T11:15:06;9.90;99.90
9311;DHT22;4694;52.464;13.480;2024-03-25T11:17:32;10.00;99.90
9311;DHT22;4694;52.464;13.480;2024-03-25T11:20:10;10.10;99.90
9311;DHT22;4694;52.464;13.480;2024-03-25T11:22:47;10.30;99.90
9311;DHT22;4694;52.464;13.480;2024-03-25T11:25:13;10.70;99.90
9311;DHT22;4694;52.464;13.480;2024-03-25T11:27:43;11.10;99.90
9311;DHT22;4694;52.464;13.480;2024-03-25T11:30:10;11.40;99.90
9311;DHT22;4694;52.464;13.480;2024-03-25T23:42:59;2.80;99.90
9311;DHT22;4694;52.464;13.480;2024-03-25T23:45:27;2.70;99.90
9311;DHT22;4694;52.464;13.480;2024-03-25T23:47:53;2.80;99.90
9311;DHT22;4694;52.464;13.480;2024-03-25T23:50:19;2.70;99.90
9311;DHT22;4694;52.464;13.480;2024-03-25T23:52:45;2.80;99.90
9311;DHT22;4694;52.464;13.480;2024-03-25T23:55:11;2.70;99.90
9311;DHT22;4694;52.464;13.480;2024-03-25T23:57:38;2.80;99.90
